Skip Navigation Links Skip Navigation Links

Current Weather

Rostraver, Monongahela, Penn.

For information only: do not use for flight planning or navigation.
Latest weather
Observation time Tuesday, January 26, 2021 7:56 PM EST
Local time Tuesday, January 26, 2021 8:41 PM EST
Flight conditions Conditions unknown
Winds
Wind direction North-Northwest (340°)
Wind speed 20 mph
Wind gusting to 28 mph
Peak wind speed 30 mph, 7:34 PM
Peak wind direction North-Northwest (330°)
Sky condition
Ceiling unlimited
Temperature 21°F
Dewpoint 12°F
Altimeter 30.16 in.Hg
Derived measurements
Relative humidity 68%
Wind chill 6°F
Density altitude -1618 ft.
Sea-level pressure 30.19 in.Hg
Remarks
Fully automated report.
Automated weather observing station without precipitation discriminator.
METAR KP53 270056Z AUTO 34017G24KT M06/M11 A3016 RMK AO1 PK WND 33026/0034 SLP225 T10611111

Settings

Location code

InnerDrive.Weather 4.0.6770.0 Release CLR 4.0.30319.42000
Copyright ©2018 Inner Drive Technology. All rights reserved. Portions Copyright ©1986-2018 David Braverman.

Find weather

Site navigation


Skip Navigation Links

Place info

Page info

PayPal - The safer, easier way to pay online!

Return home.

Copyright ©2021 Inner Drive Technology. Purveyors of fine, hand-crafted computer software. Page printed 2021-01-27T01:41:21 UTC.